PDB weather

Pedro Bay Airport
Pedro Bay, Alaska, United States

Public forecast

Using degrees Fahrenheit for public forecast. Weather courtesy of forecast.io.

METAR (pilot weather report)

Closest report is Iliamna Airport, 23.9 nm (44.2 km) W. Retrieved 2019/07/17 17:53 UTC (22 minutes ago):

PAIL 171753Z 34007KT 10SM -RA SCT085 18/12 A2973 RMK AO2 RAB51 SLP068 P0000 60000 T01830117 10189 20128 53007

TAF (pilot weather forecast)

Closest forecast is Iliamna Airport, 23.9 nm (44.2 km) W. Retrieved 2019/07/17 18:36 UTC (0 seconds ago):

TAF PAIL 171733Z 1718/1818 VRB05KT P6SM SCT100 FM180100 28012G20KT P6SM VCTS BKN050CB FM180800 28006KT P6SM VCSH BKN050 FM181200 28005KT P6SM SCT050